الصفحة الرئيسية
METAR-TAF:

METAR-TAF

مطار :

إيركوتسك, روسيا

دائرة عرض: 52-16N, خط طول: 104-19E, ارتفاع: 513 متر

مراقبة الطقس الحالي

تاريخ ووقت الإصدار 18 دقيقة قبل الساعة 03:30UTC
ريح 10 عقدة من الشمال الغربي
درجة الحرارة -2°درجة مئوية
الرطوبة 59%
ضغط 1025 hPa
الرؤية 10 كم أو أكثر
الغيوم لا تقل 1500 م ولا وجود لمزنة ركامية السحاب الأسود

METAR: UIII 220330Z 32005MPS CAVOK M02/M09 Q1025 R30/CLRD60 NOSIG RMK QFE724/0965

زمن: 11:48 (03:48 UTC)

توقعات

تاريخ ووقت الإصدار 1ساعة و 48 دقيقة قبل الساعة 02:00UTC
التوقعات صالحة من22 الساعة 03 UTC إلى 23 الساعة 03 UTC
ريح 6 عقدة من الغرب/الشمال الغربي
الرؤية 10 كم أو أكثر
غيوم مفككة على ارتفاع 1200 قدم, مزنة ركامية.
مؤقت
من 22 الساعة 03 UTC إلى 22 الساعة 18 UTC
ريح 19 عقدة من الشمال الغربي
الرؤية: 0900 متر
على ارتفاع 300 قدم
زخات ثلجية غزيرة
أصبح
من 22 الساعة 23 UTC إلى 23 الساعة 01 UTC

TAF: UIII 220200Z 2203/2303 30003MPS 9999 BKN012CB TEMPO 2203/2218 32010MPS 0900 +SHSN VV003 BECMG 2223/2301 NSC

أرصاد الطقس والتوقعات من أكثر من 4000 مطار (تقارير الطقس للمطار METAR والتنبؤ بالطقس بالمطارTAF).

المحطات المتاحة هي النقط الصفراء والحمراء على الخريطة.

حرك المؤشر فوق النقطة لمعرفة اسم المحطة.

ثم انقر لمعرفة أرصاد وتوقعات الطقس.

لتغيير الخارطة: اضغط على الأزرار الخضراء مع رمز الصليب الأسود للتكبير. على الزر الأخضر مع شرطة للتصغير، أو على الأسهم الخضراء للخرائط المجاورة.


METAR-TAF: